Time;durP1;ratioP1;P1;durP2;ratioP2;P2;SDS_P1;SDS_P2;PMS_P1;PMS_P2;Temp;Humidity;BMP_temperature;BMP_pressure;BME280_temperature;BME280_humidity;BME280_pressure;Samples;Min_cycle;Max_cycle;Signal;HPM_P1;HPM_P2
2024/03/16 00:03:47;;;;;;;11.65;6.40;;;13.20;99.90;;;;;;2603191;54;20580;31
2024/03/16 00:06:24;;;;;;;9.70;5.25;;;13.20;99.90;;;;;;2603078;54;20892;31
2024/03/16 00:09:00;;;;;;;11.13;7.60;;;13.30;99.90;;;;;;2602833;54;20108;31
2024/03/16 00:11:37;;;;;;;15.57;6.77;;;13.30;99.90;;;;;;2603086;54;20030;31
2024/03/16 00:44:28;;;;;;;32.13;19.07;;;13.10;99.90;;;;;;2610846;54;20011;31
2024/03/16 00:47:03;;;;;;;33.78;18.30;;;13.10;99.90;;;;;;2602967;54;20093;31
2024/03/16 00:49:38;;;;;;;28.85;16.92;;;13.00;99.90;;;;;;2603008;54;20859;31
2024/03/16 00:52:13;;;;;;;28.47;16.77;;;13.00;99.90;;;;;;2602837;54;20050;31
2024/03/16 00:54:48;;;;;;;27.08;15.63;;;13.00;99.90;;;;;;2719778;39;22645;31
2024/03/16 00:57:23;;;;;;;23.15;13.95;;;13.00;99.90;;;;;;2602698;54;20591;31
2024/03/16 01:00:00;;;;;;;25.25;15.25;;;13.00;99.90;;;;;;2621052;46;20981;31
2024/03/16 01:02:47;;;;;;;18.77;11.77;;;12.90;99.90;;;;;;2701543;39;21400;31
2024/03/16 01:05:22;;;;;;;16.08;9.45;;;12.90;99.90;;;;;;2602793;54;20037;31
2024/03/16 01:07:59;;;;;;;13.82;9.07;;;12.90;99.90;;;;;;2602941;54;20030;31
2024/03/16 01:10:32;;;;;;;15.77;9.82;;;12.90;99.90;;;;;;2602920;54;20030;31
2024/03/16 01:13:07;;;;;;;15.40;10.27;;;12.80;99.90;;;;;;2720069;39;21409;31
2024/03/16 01:34:00;;;;;;;14.65;9.52;;;12.50;99.90;;;;;;2612245;54;21896;31
2024/03/16 01:36:38;;;;;;;16.75;10.30;;;12.50;99.90;;;;;;2604405;54;20030;31
2024/03/16 01:39:19;;;;;;;17.83;11.43;;;12.60;99.90;;;;;;2622753;46;20889;31
2024/03/16 01:41:59;;;;;;;19.38;10.98;;;12.40;99.90;;;;;;2604437;54;20108;31
2024/03/16 02:12:15;;;;;;;17.40;10.40;;;12.10;99.90;;;;;;2604085;54;21468;31
2024/03/16 02:21:07;;;;;;;15.63;8.88;;;12.00;99.90;;;;;;2604234;54;20724;31
2024/03/16 02:45:42;;;;;;;16.52;10.18;;;11.60;99.90;;;;;;2610412;54;20445;31
2024/03/16 02:57:30;;;;;;;13.40;9.05;;;11.50;99.90;;;;;;2602459;54;20054;31
2024/03/16 03:00:14;;;;;;;21.00;12.05;;;11.40;99.90;;;;;;2603082;54;20062;31
2024/03/16 03:02:50;;;;;;;20.20;12.30;;;11.40;99.90;;;;;;2603279;54;20854;31
2024/03/16 03:05:39;;;;;;;25.07;12.60;;;11.40;99.90;;;;;;2603158;54;20034;31
2024/03/16 03:08:14;;;;;;;21.08;12.77;;;11.40;99.90;;;;;;2701582;39;21779;31
2024/03/16 03:10:52;;;;;;;24.10;13.97;;;11.40;99.90;;;;;;2621631;46;20777;31
2024/03/16 03:13:32;;;;;;;22.38;13.52;;;11.40;99.90;;;;;;2701489;39;20804;31
2024/03/16 03:18:45;;;;;;;18.60;11.35;;;11.40;99.90;;;;;;2603023;54;20771;31
2024/03/16 03:21:20;;;;;;;16.45;10.75;;;11.40;99.90;;;;;;2603120;54;20042;31
2024/03/16 03:23:56;;;;;;;15.18;10.50;;;11.40;99.90;;;;;;2603143;54;22374;31
2024/03/16 03:26:33;;;;;;;19.75;11.75;;;11.50;99.90;;;;;;2603141;54;20937;31
2024/03/16 03:29:11;;;;;;;17.48;11.77;;;11.50;99.90;;;;;;2603002;54;20076;31
2024/03/16 03:31:48;;;;;;;17.60;11.40;;;11.50;99.90;;;;;;2603179;54;20033;31
2024/03/16 03:34:32;;;;;;;19.00;11.35;;;11.50;99.90;;;;;;2621482;46;20970;31
2024/03/16 03:37:07;;;;;;;18.90;12.95;;;11.50;99.90;;;;;;2621532;46;20022;31
2024/03/16 03:39:42;;;;;;;17.77;12.70;;;11.50;99.90;;;;;;2603318;54;20781;31
2024/03/16 03:42:18;;;;;;;15.25;11.55;;;11.50;99.90;;;;;;2621727;46;20875;31
2024/03/16 03:48:14;;;;;;;17.40;12.05;;;11.40;99.90;;;;;;2602732;54;20876;31
2024/03/16 03:50:51;;;;;;;18.17;11.77;;;11.40;99.90;;;;;;2621584;46;20031;31
2024/03/16 03:53:29;;;;;;;14.50;10.82;;;11.50;99.90;;;;;;2603023;54;20027;31
2024/03/16 03:56:06;;;;;;;15.23;12.00;;;11.30;99.90;;;;;;2602780;54;20037;31
2024/03/16 03:58:45;;;;;;;15.13;9.30;;;11.30;99.90;;;;;;2701265;39;20515;31
2024/03/16 04:01:22;;;;;;;15.85;10.95;;;11.30;99.90;;;;;;2602956;54;21437;31
2024/03/16 04:04:08;;;;;;;15.63;10.98;;;11.20;99.90;;;;;;2603098;54;20034;31
2024/03/16 04:09:48;;;;;;;14.10;10.35;;;11.10;99.90;;;;;;2602064;54;20834;31
2024/03/16 04:15:07;;;;;;;13.45;10.05;;;11.00;99.90;;;;;;2603060;54;20064;31
2024/03/16 04:17:45;;;;;;;9.75;7.55;;;11.00;99.90;;;;;;2602902;54;20026;31
2024/03/16 04:20:29;;;;;;;11.48;8.82;;;11.00;99.90;;;;;;2621142;46;20018;31
2024/03/16 04:23:08;;;;;;;13.65;9.00;;;10.90;99.90;;;;;;2602878;54;20029;31
2024/03/16 04:25:43;;;;;;;12.63;9.57;;;10.90;99.90;;;;;;2602727;54;20034;31
2024/03/16 04:28:18;;;;;;;12.75;9.75;;;10.90;99.90;;;;;;2621320;46;20026;31
2024/03/16 04:30:53;;;;;;;14.07;9.50;;;10.80;99.90;;;;;;2602772;54;20050;31
2024/03/16 04:33:30;;;;;;;15.05;11.90;;;10.80;99.90;;;;;;2602820;54;20023;31
2024/03/16 04:53:24;;;;;;;14.30;9.25;;;10.60;99.90;;;;;;2610560;54;20022;31
2024/03/16 04:56:04;;;;;;;14.75;10.15;;;10.50;99.90;;;;;;2602701;54;20944;31
2024/03/16 04:58:41;;;;;;;11.10;8.35;;;10.50;99.90;;;;;;2620542;46;20885;31
2024/03/16 05:03:52;;;;;;;12.80;9.93;;;10.40;99.90;;;;;;2602570;54;20038;31
2024/03/16 05:06:30;;;;;;;9.60;7.90;;;10.30;99.90;;;;;;2602769;54;20904;31
2024/03/16 05:09:09;;;;;;;10.63;7.55;;;10.30;99.90;;;;;;2602501;54;20052;31
2024/03/16 05:11:46;;;;;;;12.65;8.63;;;10.30;99.90;;;;;;2602533;54;20902;31
2024/03/16 05:14:31;;;;;;;11.75;9.73;;;10.30;99.90;;;;;;2620844;46;21272;31
2024/03/16 05:17:19;;;;;;;15.20;8.10;;;10.20;99.90;;;;;;2602417;54;20027;31
2024/03/16 05:25:54;;;;;;;9.40;7.18;;;10.20;99.90;;;;;;2602336;54;20092;31
2024/03/16 05:28:32;;;;;;;10.48;7.47;;;10.20;99.90;;;;;;2602460;54;20034;31
2024/03/16 05:31:07;;;;;;;10.60;7.75;;;10.20;99.90;;;;;;2602380;54;20783;31
2024/03/16 05:36:52;;;;;;;9.35;7.45;;;10.20;99.90;;;;;;2601741;54;20081;31
2024/03/16 05:39:29;;;;;;;11.32;8.23;;;10.20;99.90;;;;;;2602595;54;20027;31
2024/03/16 05:51:30;;;;;;;10.45;7.55;;;10.30;99.90;;;;;;2700687;39;21446;31
2024/03/16 06:02:59;;;;;;;14.30;8.68;;;10.50;99.90;;;;;;2602186;54;20022;31
2024/03/16 06:05:37;;;;;;;11.60;7.80;;;10.60;99.90;;;;;;2602580;54;20858;31
2024/03/16 06:08:18;;;;;;;12.30;8.10;;;10.60;99.90;;;;;;2696570;39;20026;31
2024/03/16 06:10:52;;;;;;;9.05;7.20;;;10.70;99.90;;;;;;2603226;54;21533;31
2024/03/16 06:16:40;;;;;;;10.05;8.35;;;10.80;99.90;;;;;;2603102;54;20026;31
2024/03/16 06:43:58;;;;;;;9.35;7.10;;;11.30;99.90;;;;;;2602523;54;20034;31
2024/03/16 06:52:46;;;;;;;11.38;8.98;;;11.60;99.90;;;;;;2603229;54;20847;31
2024/03/16 06:55:24;;;;;;;9.27;7.33;;;11.90;99.90;;;;;;2603043;54;20029;31
2024/03/16 06:57:59;;;;;;;10.03;7.70;;;12.30;99.90;;;;;;2603289;54;20022;31
2024/03/16 07:00:35;;;;;;;10.77;6.70;;;12.80;99.90;;;;;;2603337;54;20247;31
2024/03/16 07:06:19;;;;;;;10.57;7.38;;;13.20;95.40;;;;;;2603015;54;20865;31
2024/03/16 07:09:08;;;;;;;9.65;7.15;;;13.50;94.60;;;;;;2701489;39;21537;31
2024/03/16 07:23:47;;;;;;;6.55;5.18;;;16.50;3.70;;;;;;2603298;54;20833;31
2024/03/16 07:38:54;;;;;;;8.85;6.13;;;17.80;1.00;;;;;;2602369;54;20035;31
2024/03/16 07:44:35;;;;;;;9.75;5.15;;;18.70;1.00;;;;;;2603068;54;20030;31
2024/03/16 08:02:37;;;;;;;5.40;2.30;;;19.60;99.90;;;;;;2610387;54;20026;31
2024/03/16 08:08:24;;;;;;;4.80;2.57;;;19.10;1.00;;;;;;2602528;54;20019;31
2024/03/16 08:11:04;;;;;;;6.00;2.50;;;18.80;99.90;;;;;;2603116;54;21078;31
2024/03/16 08:13:38;;;;;;;4.50;2.78;;;18.60;31.30;;;;;;2602877;54;20052;31
2024/03/16 08:16:15;;;;;;;2.90;2.13;;;18.40;99.90;;;;;;2603122;54;20052;31
2024/03/16 08:18:54;;;;;;;4.63;2.58;;;18.10;99.90;;;;;;2603084;54;20849;31
2024/03/16 08:21:29;;;;;;;3.55;2.00;;;17.80;99.90;;;;;;2602990;54;20030;31
2024/03/16 08:24:07;;;;;;;5.43;1.97;;;17.70;99.90;;;;;;2602813;54;20053;31
2024/03/16 08:26:42;;;;;;;2.90;1.75;;;17.60;99.90;;;;;;2701278;39;20753;31
2024/03/16 09:00:38;;;;;;;5.90;2.25;;;17.90;99.90;;;;;;2602066;54;20053;31
2024/03/16 09:03:15;;;;;;;4.43;2.08;;;17.80;99.90;;;;;;2602681;54;20105;31
2024/03/16 09:08:58;;;;;;;3.25;1.75;;;17.50;99.90;;;;;;2610572;54;20022;31
2024/03/16 09:20:46;;;;;;;5.20;2.55;;;17.90;99.90;;;;;;2602535;54;20903;31
2024/03/16 09:23:29;;;;;;;4.00;2.20;;;17.90;2.00;;;;;;2602780;54;20030;31
2024/03/16 09:26:04;;;;;;;3.97;1.92;;;17.70;1.00;;;;;;2602796;54;20941;31
2024/03/16 09:28:39;;;;;;;3.83;2.33;;;17.80;99.90;;;;;;2602821;54;20022;31
2024/03/16 09:31:14;;;;;;;8.93;2.60;;;17.90;99.90;;;;;;2602614;54;20081;31
2024/03/16 09:33:50;;;;;;;3.53;2.80;;;18.00;99.90;;;;;;2602553;54;20026;31
2024/03/16 09:36:28;;;;;;;4.00;2.95;;;18.20;1.00;;;;;;2602409;54;20089;31
2024/03/16 09:42:05;;;;;;;15.00;6.80;;;18.80;99.90;;;;;;2602663;54;20239;31
2024/03/16 09:45:06;;;;;;;4.67;2.77;;;19.20;1.00;;;;;;2602597;54;20037;31
2024/03/16 09:47:50;;;;;;;3.05;1.95;;;19.60;99.90;;;;;;2603432;54;21289;31
2024/03/16 10:02:44;;;;;;;5.55;1.67;;;20.20;99.90;;;;;;2602662;54;20030;31
2024/03/16 11:00:44;;;;;;;1.90;0.82;;;21.30;99.90;;;;;;2602374;54;20022;31
2024/03/16 11:12:35;;;;;;;3.85;1.10;;;21.10;99.90;;;;;;2602143;54;21213;31
2024/03/16 11:46:00;;;;;;;3.15;0.60;;;19.60;99.90;;;;;;2603097;54;20022;31
2024/03/16 11:48:32;;;;;;;4.07;0.87;;;19.50;99.90;;;;;;2603044;54;20030;31
2024/03/16 12:06:32;;;;;;;3.63;1.27;;;18.90;65.40;;;;;;2603134;54;20243;31
2024/03/16 12:12:07;;;;;;;2.60;0.63;;;18.90;99.90;;;;;;2603033;54;20951;31
2024/03/16 12:15:09;;;;;;;8.55;3.75;;;18.90;99.90;;;;;;2603101;54;20776;31
2024/03/16 12:20:42;;;;;;;7.45;2.55;;;19.00;99.90;;;;;;2602105;54;20022;31
2024/03/16 12:23:28;;;;;;;16.08;7.65;;;19.00;99.90;;;;;;2615986;46;21882;31
2024/03/16 12:26:14;;;;;;;7.40;2.33;;;19.10;99.90;;;;;;2700717;39;20586;31
2024/03/16 12:31:53;;;;;;;10.60;3.80;;;19.10;99.90;;;;;;2602429;54;20049;31
2024/03/16 12:34:25;;;;;;;1.85;0.55;;;19.10;99.90;;;;;;2602950;54;21025;31
2024/03/16 12:37:01;;;;;;;2.10;0.40;;;19.00;1.00;;;;;;2602759;54;20030;31
2024/03/16 12:39:32;;;;;;;4.45;1.70;;;19.10;1.00;;;;;;2602760;54;20049;31
2024/03/16 12:42:07;;;;;;;2.50;0.50;;;19.20;1.00;;;;;;2602854;54;20082;31
2024/03/16 12:44:39;;;;;;;1.63;0.50;;;19.30;1.00;;;;;;2602989;54;20057;31
2024/03/16 12:47:15;;;;;;;3.40;0.40;;;19.40;99.90;;;;;;2602964;54;20038;31
2024/03/16 12:49:49;;;;;;;4.35;1.55;;;19.40;99.90;;;;;;2602761;54;20027;31
2024/03/16 12:52:23;;;;;;;1.23;0.50;;;19.40;99.90;;;;;;2602963;54;20893;31
2024/03/16 12:54:57;;;;;;;2.85;0.35;;;19.30;99.90;;;;;;2602717;54;20041;31
2024/03/16 12:57:31;;;;;;;2.38;0.57;;;19.10;99.90;;;;;;2602738;54;20100;31
2024/03/16 13:00:05;;;;;;;13.75;6.35;;;19.00;99.90;;;;;;2602811;54;20089;31
2024/03/16 13:02:39;;;;;;;7.20;1.00;;;18.70;1.00;;;;;;2621290;46;20029;31
2024/03/16 13:05:13;;;;;;;2.30;0.90;;;18.30;99.50;;;;;;2602946;54;20888;31
2024/03/16 13:07:44;;;;;;;2.53;0.77;;;17.90;99.90;;;;;;2602646;54;20234;31
2024/03/16 13:10:21;;;;;;;1.38;0.40;;;17.30;99.90;;;;;;2602801;54;20030;31
2024/03/16 13:12:53;;;;;;;3.65;0.55;;;16.90;99.90;;;;;;2621282;46;20031;31
2024/03/16 13:15:30;;;;;;;4.32;0.80;;;16.60;1.00;;;;;;2602674;54;20837;31
2024/03/16 13:18:04;;;;;;;5.03;0.57;;;16.40;1.00;;;;;;2602806;54;20022;31
2024/03/16 13:20:38;;;;;;;3.92;1.13;;;16.20;1.00;;;;;;2621147;46;20064;31
2024/03/16 13:23:12;;;;;;;5.00;1.23;;;16.00;1.00;;;;;;2602875;54;20057;31
2024/03/16 13:25:44;;;;;;;5.15;1.60;;;16.00;1.00;;;;;;2602689;54;20031;31
2024/03/16 13:28:20;;;;;;;4.00;1.10;;;16.10;1.00;;;;;;2602720;54;20054;31
2024/03/16 13:30:51;;;;;;;4.10;1.33;;;16.00;1.00;;;;;;2618971;47;20983;31
2024/03/16 13:33:30;;;;;;;3.25;0.70;;;16.10;1.00;;;;;;2602972;54;19989;31
2024/03/16 13:36:08;;;;;;;2.60;0.70;;;16.10;1.00;;;;;;2620916;47;20085;31
2024/03/16 13:38:46;;;;;;;2.00;0.70;;;16.10;1.00;;;;;;2602803;54;20026;31
2024/03/16 13:41:21;;;;;;;4.75;1.20;;;16.20;1.00;;;;;;2621020;47;20081;31
2024/03/16 13:43:54;;;;;;;3.50;0.90;;;16.30;1.00;;;;;;2602599;54;20085;31
2024/03/16 13:46:28;;;;;;;5.60;1.50;;;16.30;1.00;;;;;;2602746;54;20758;31
2024/03/16 13:49:03;;;;;;;5.50;1.80;;;16.30;1.00;;;;;;2621111;47;20053;31
2024/03/16 13:51:35;;;;;;;3.60;1.33;;;16.40;1.00;;;;;;2602525;54;20025;31
2024/03/16 13:54:07;;;;;;;3.20;1.45;;;16.50;1.00;;;;;;2602693;54;20018;31
2024/03/16 13:56:41;;;;;;;3.45;0.95;;;16.60;1.00;;;;;;2602670;54;20890;31
2024/03/16 13:59:15;;;;;;;4.03;1.42;;;16.70;1.00;;;;;;2602727;54;20902;31
2024/03/16 14:01:49;;;;;;;3.35;1.10;;;16.70;1.00;;;;;;2602624;54;20874;31
2024/03/16 14:04:25;;;;;;;2.65;1.15;;;16.70;1.00;;;;;;2602048;54;20027;31
2024/03/16 14:07:00;;;;;;;3.70;1.27;;;16.80;1.00;;;;;;2602622;54;20790;31
2024/03/16 14:09:37;;;;;;;2.75;1.55;;;16.70;1.00;;;;;;2621186;47;20917;31
2024/03/16 14:12:12;;;;;;;4.80;1.58;;;16.70;1.00;;;;;;2602414;54;20049;31
2024/03/16 14:14:45;;;;;;;3.45;1.40;;;16.70;1.00;;;;;;2602602;54;20105;31
2024/03/16 14:17:18;;;;;;;3.67;1.58;;;16.80;1.00;;;;;;2602560;54;21286;31
2024/03/16 14:19:53;;;;;;;2.50;1.20;;;16.80;1.00;;;;;;2602364;54;20025;31
2024/03/16 14:22:28;;;;;;;2.75;1.25;;;16.80;99.90;;;;;;2602744;54;20881;31
2024/03/16 14:25:05;;;;;;;3.60;1.03;;;16.90;99.90;;;;;;2602495;54;20781;31
2024/03/16 14:27:46;;;;;;;2.35;0.90;;;16.90;99.90;;;;;;2603141;54;20056;31
2024/03/16 14:30:20;;;;;;;5.55;0.90;;;16.80;1.00;;;;;;2622164;46;20842;31
2024/03/16 14:32:54;;;;;;;2.95;1.10;;;16.80;1.00;;;;;;2603301;54;20495;31
2024/03/16 14:35:27;;;;;;;3.60;0.70;;;16.80;99.90;;;;;;2603426;54;20085;31
2024/03/16 14:38:01;;;;;;;2.25;0.90;;;16.80;99.90;;;;;;2621884;46;20885;31
2024/03/16 14:40:35;;;;;;;3.83;0.82;;;16.70;84.90;;;;;;2602778;54;20723;31
2024/03/16 14:43:10;;;;;;;2.38;0.73;;;16.70;1.00;;;;;;2603332;54;20031;31
2024/03/16 14:45:41;;;;;;;2.47;0.70;;;16.60;99.90;;;;;;2603351;54;20769;31
2024/03/16 14:48:17;;;;;;;3.35;0.70;;;16.50;1.00;;;;;;2603485;54;20031;31
2024/03/16 14:50:50;;;;;;;2.75;0.60;;;16.50;1.00;;;;;;2791344;31;20546;31
2024/03/16 14:53:24;;;;;;;2.25;0.90;;;16.40;1.00;;;;;;2603442;54;20095;31
2024/03/16 14:55:55;;;;;;;2.03;0.50;;;16.30;99.90;;;;;;2603273;54;20058;31
2024/03/16 14:58:27;;;;;;;2.28;0.50;;;16.20;1.00;;;;;;2603189;54;22367;31
2024/03/16 15:00:58;;;;;;;3.30;1.40;;;16.10;99.90;;;;;;2603326;54;20050;31
2024/03/16 15:03:32;;;;;;;94.60;12.85;;;15.90;99.90;;;;;;2603359;54;20830;31
2024/03/16 15:06:05;;;;;;;1.90;0.70;;;15.90;1.00;;;;;;2603110;54;20027;31
2024/03/16 15:08:39;;;;;;;2.93;1.30;;;15.80;1.00;;;;;;2621500;46;20754;31
2024/03/16 15:11:13;;;;;;;3.00;0.80;;;15.70;99.90;;;;;;2602284;54;20235;31
2024/03/16 15:13:47;;;;;;;4.40;0.90;;;15.70;1.00;;;;;;2603003;54;20038;31
2024/03/16 15:16:22;;;;;;;2.20;0.68;;;15.60;1.00;;;;;;2603323;54;20030;31
2024/03/16 15:19:00;;;;;;;2.05;0.77;;;15.60;99.90;;;;;;2603148;54;20897;31
2024/03/16 15:21:34;;;;;;;4.80;0.80;;;15.50;99.90;;;;;;2603295;54;21493;31
2024/03/16 15:24:09;;;;;;;1.77;1.05;;;15.50;1.00;;;;;;2621686;46;20850;31
2024/03/16 15:26:46;;;;;;;5.63;2.15;;;15.40;99.90;;;;;;2603232;54;20736;31
2024/03/16 15:29:22;;;;;;;2.20;1.20;;;15.30;99.90;;;;;;2603071;54;20030;31
2024/03/16 15:31:53;;;;;;;6.50;2.65;;;15.30;1.00;;;;;;2720223;39;21506;31
2024/03/16 15:34:27;;;;;;;7.90;3.83;;;15.30;30.20;;;;;;2603196;54;20728;31
2024/03/16 15:37:03;;;;;;;3.60;1.60;;;15.20;99.90;;;;;;2602940;54;20898;31
2024/03/16 15:39:33;;;;;;;2.70;1.13;;;15.20;99.90;;;;;;2621799;46;20064;31
2024/03/16 15:42:07;;;;;;;3.07;1.30;;;15.20;99.90;;;;;;2603255;54;20727;31
2024/03/16 15:44:38;;;;;;;3.37;1.50;;;15.10;99.90;;;;;;2603282;54;20049;31
2024/03/16 15:47:12;;;;;;;4.35;1.40;;;15.10;99.90;;;;;;2621363;46;20026;31
2024/03/16 15:49:44;;;;;;;2.35;1.02;;;15.10;99.90;;;;;;2603193;54;20711;31
2024/03/16 15:52:21;;;;;;;3.35;1.35;;;15.10;99.90;;;;;;2602884;54;21237;31
2024/03/16 15:54:55;;;;;;;2.53;1.30;;;15.00;99.90;;;;;;2603284;54;20061;31
2024/03/16 15:57:33;;;;;;;1.70;0.93;;;15.00;1.00;;;;;;2603034;54;20034;31
2024/03/16 16:00:08;;;;;;;3.00;1.20;;;15.00;1.00;;;;;;2621125;46;20030;31
2024/03/16 16:02:41;;;;;;;3.47;1.40;;;15.00;1.00;;;;;;2621571;46;20038;31
2024/03/16 16:05:19;;;;;;;2.15;1.40;;;15.00;1.00;;;;;;2603074;54;20089;31
2024/03/16 16:07:53;;;;;;;3.05;1.38;;;14.90;1.00;;;;;;2701458;39;21456;31
2024/03/16 16:10:27;;;;;;;6.72;1.50;;;14.90;1.00;;;;;;2603096;54;20027;31
2024/03/16 16:12:59;;;;;;;17.25;7.68;;;14.80;1.00;;;;;;2701865;39;22381;31
2024/03/16 16:15:33;;;;;;;6.25;3.58;;;14.80;1.00;;;;;;2621572;46;20839;31
2024/03/16 16:18:07;;;;;;;3.63;1.98;;;14.70;1.00;;;;;;2701643;39;21503;31
2024/03/16 16:20:38;;;;;;;4.00;1.65;;;14.60;1.00;;;;;;2602870;54;21000;31
2024/03/16 16:23:15;;;;;;;3.25;1.50;;;14.60;1.00;;;;;;2603069;54;20874;31
2024/03/16 16:25:47;;;;;;;2.65;1.30;;;14.50;1.00;;;;;;2602840;54;20109;31
2024/03/16 16:28:21;;;;;;;3.30;2.10;;;14.40;1.00;;;;;;2602890;54;20887;31
2024/03/16 16:30:51;;;;;;;5.10;2.13;;;14.30;1.00;;;;;;2604351;46;20042;31
2024/03/16 16:33:29;;;;;;;6.68;2.17;;;14.30;1.00;;;;;;2603145;54;20077;31
2024/03/16 16:36:01;;;;;;;15.90;3.22;;;14.30;1.00;;;;;;2602769;54;20042;31
2024/03/16 16:38:38;;;;;;;5.75;2.13;;;14.20;1.00;;;;;;2603129;54;20018;31
2024/03/16 16:41:12;;;;;;;3.45;1.45;;;14.10;1.00;;;;;;2621284;46;20029;31
2024/03/16 16:43:45;;;;;;;17.10;8.10;;;14.10;1.00;;;;;;2621502;46;20026;31
2024/03/16 16:46:16;;;;;;;23.70;11.55;;;14.00;1.00;;;;;;2621163;46;20034;31
2024/03/16 16:48:55;;;;;;;20.50;10.20;;;14.00;1.00;;;;;;2602698;54;20976;31
2024/03/16 16:51:29;;;;;;;10.43;5.80;;;13.90;1.00;;;;;;2602862;54;20089;31
2024/03/16 16:54:05;;;;;;;7.77;4.17;;;13.90;1.00;;;;;;2621340;46;20032;31
2024/03/16 16:56:39;;;;;;;8.53;4.97;;;13.80;1.00;;;;;;2602810;54;20735;31
2024/03/16 16:59:10;;;;;;;8.85;5.00;;;13.70;1.00;;;;;;2602695;54;20743;31
2024/03/16 17:01:53;;;;;;;10.15;4.20;;;13.70;1.00;;;;;;2602753;54;20093;31
2024/03/16 17:04:23;;;;;;;10.63;4.75;;;13.60;1.00;;;;;;2602697;54;21515;31
2024/03/16 17:09:45;;;;;;;5.53;3.67;;;13.60;1.00;;;;;;2602780;54;20029;31
2024/03/16 17:12:16;;;;;;;;;;;13.60;1.00;;;;;;2701539;39;21669;31
2024/03/16 17:14:49;;;;;;;8.20;4.20;;;13.50;1.00;;;;;;2621146;46;19994;31
2024/03/16 17:17:20;;;;;;;10.80;6.10;;;13.50;1.00;;;;;;2602774;54;20030;31
2024/03/16 17:19:54;;;;;;;11.30;5.72;;;13.50;1.00;;;;;;2602738;54;20034;31
2024/03/16 17:22:25;;;;;;;7.55;3.90;;;13.50;1.00;;;;;;2602978;54;20928;31
2024/03/16 17:25:02;;;;;;;7.30;3.30;;;13.40;1.00;;;;;;2602711;54;20029;31
2024/03/16 17:27:35;;;;;;;7.85;3.50;;;13.40;1.00;;;;;;2602869;54;20031;31
2024/03/16 17:30:10;;;;;;;4.90;3.05;;;13.40;1.00;;;;;;2602761;54;20046;31
2024/03/16 17:32:45;;;;;;;6.18;3.20;;;13.30;1.00;;;;;;2602522;54;20895;31
2024/03/16 17:35:20;;;;;;;5.70;3.08;;;13.20;1.00;;;;;;2602747;54;20042;31
2024/03/16 17:37:57;;;;;;;8.27;3.17;;;13.30;1.30;;;;;;2602689;54;20873;31
2024/03/16 17:40:38;;;;;;;2.20;1.40;;;13.20;8.10;;;;;;2602797;54;20030;31
2024/03/16 17:43:16;;;;;;;2.00;0.80;;;13.10;13.20;;;;;;2602691;54;20093;31
2024/03/16 17:48:42;;;;;;;1.63;0.82;;;12.80;21.60;;;;;;2602531;54;20034;31
2024/03/16 17:51:18;;;;;;;2.50;0.95;;;12.50;34.40;;;;;;2621138;47;20871;31
2024/03/16 17:53:49;;;;;;;2.15;0.95;;;12.40;45.80;;;;;;2602623;54;20076;31
2024/03/16 17:56:23;;;;;;;1.93;0.90;;;12.30;64.20;;;;;;2602690;54;20826;31
2024/03/16 17:58:58;;;;;;;7.93;1.70;;;12.20;83.50;;;;;;2602474;54;20930;31
2024/03/16 18:45:55;;;;;;;2.05;1.42;;;11.00;99.90;;;;;;2611009;54;20258;31
2024/03/16 18:57:12;;;;;;;4.13;1.77;;;11.10;99.90;;;;;;2602127;54;20056;31
2024/03/16 19:18:13;;;;;;;4.90;3.30;;;11.00;99.90;;;;;;2611074;54;20401;31
2024/03/16 19:24:02;;;;;;;5.40;3.83;;;10.90;99.90;;;;;;2610728;54;20015;31
2024/03/16 19:26:36;;;;;;;5.43;3.55;;;10.90;99.90;;;;;;2603018;54;20141;31
2024/03/16 19:29:19;;;;;;;6.22;3.60;;;10.70;99.90;;;;;;2621078;46;20766;31
2024/03/16 19:31:59;;;;;;;4.15;3.05;;;10.70;99.90;;;;;;2621344;46;20488;31
2024/03/16 20:17:21;;;;;;;5.55;2.85;;;9.70;57.40;;;;;;2926873;46;20018;31
2024/03/16 20:19:59;;;;;;;5.60;2.87;;;9.60;55.50;;;;;;2621402;46;20030;31
2024/03/16 20:22:30;;;;;;;5.07;2.00;;;9.50;55.50;;;;;;2602580;54;20249;31
2024/03/16 20:25:07;;;;;;;4.80;2.55;;;9.50;54.80;;;;;;2602016;54;20038;31
2024/03/16 20:39:53;;;;;;;7.07;3.00;;;9.20;44.00;;;;;;2926803;46;21040;31
2024/03/16 20:42:33;;;;;;;4.60;2.90;;;9.20;41.20;;;;;;2620942;46;20102;31
2024/03/16 20:48:19;;;;;;;6.50;3.30;;;9.10;39.20;;;;;;2602638;54;20776;31
2024/03/16 20:50:50;;;;;;;9.20;4.28;;;9.10;40.10;;;;;;2602616;54;20781;31
2024/03/16 20:53:24;;;;;;;5.70;3.47;;;9.00;42.70;;;;;;2602541;54;20746;31
2024/03/16 20:55:59;;;;;;;7.65;3.75;;;9.00;45.90;;;;;;2602579;54;20846;31
2024/03/16 20:58:33;;;;;;;5.85;3.45;;;9.00;47.20;;;;;;2602784;54;20910;31
2024/03/16 21:01:10;;;;;;;8.50;2.90;;;8.90;47.20;;;;;;2602462;54;20111;31
2024/03/16 21:03:44;;;;;;;5.38;3.00;;;8.90;47.40;;;;;;2602642;54;20042;31
2024/03/16 21:06:15;;;;;;;4.03;2.42;;;8.80;43.10;;;;;;2602550;54;20038;31
2024/03/16 21:08:49;;;;;;;9.27;3.00;;;8.70;34.90;;;;;;2602476;54;20044;31
2024/03/16 21:11:27;;;;;;;6.15;3.17;;;8.60;31.20;;;;;;2602422;54;20913;31
2024/03/16 21:13:59;;;;;;;5.53;2.30;;;8.60;28.00;;;;;;2602497;54;20027;31
2024/03/16 21:16:33;;;;;;;5.47;2.63;;;8.50;26.50;;;;;;2602389;54;20231;31
2024/03/16 21:19:11;;;;;;;4.75;2.10;;;8.50;25.20;;;;;;2620753;46;21088;31
2024/03/16 21:21:43;;;;;;;4.72;2.15;;;8.30;25.10;;;;;;2602445;54;20178;31
2024/03/16 21:24:19;;;;;;;5.55;2.00;;;8.30;24.70;;;;;;2602365;54;20930;31
2024/03/16 21:26:56;;;;;;;9.80;2.55;;;8.30;20.30;;;;;;2602709;54;20772;31
2024/03/16 21:29:28;;;;;;;4.15;1.73;;;8.20;17.90;;;;;;2602574;54;20767;31
2024/03/16 21:32:01;;;;;;;3.30;1.70;;;8.20;13.50;;;;;;2602502;54;20849;31
2024/03/16 21:34:32;;;;;;;5.80;1.70;;;8.10;11.20;;;;;;2602681;54;20034;31
2024/03/16 21:37:06;;;;;;;5.45;1.75;;;8.10;13.00;;;;;;2603096;54;20033;31
2024/03/16 21:39:38;;;;;;;5.00;2.38;;;8.10;16.50;;;;;;2603214;54;20053;31
2024/03/16 21:42:19;;;;;;;5.88;1.90;;;8.00;16.00;;;;;;2621681;46;20038;31
2024/03/16 21:44:49;;;;;;;4.35;1.80;;;8.00;16.50;;;;;;2603351;54;21597;31
2024/03/16 21:47:23;;;;;;;4.70;1.80;;;7.90;16.80;;;;;;2603112;54;20042;31
2024/03/16 21:49:55;;;;;;;3.50;1.42;;;7.90;18.20;;;;;;2603265;54;20900;31
2024/03/16 21:52:29;;;;;;;6.40;2.50;;;7.80;19.40;;;;;;2603059;54;20758;31
2024/03/16 21:55:00;;;;;;;4.82;1.88;;;7.80;19.70;;;;;;2603358;54;20878;31
2024/03/16 21:57:39;;;;;;;6.80;2.20;;;7.70;21.10;;;;;;2603251;54;20841;31
2024/03/16 22:00:13;;;;;;;4.60;1.85;;;7.70;22.30;;;;;;2603411;54;20030;31
2024/03/16 22:02:48;;;;;;;9.30;2.10;;;7.70;23.80;;;;;;2603082;54;20037;31
2024/03/16 22:05:19;;;;;;;4.75;2.10;;;7.70;23.70;;;;;;2603274;54;20026;31
2024/03/16 22:07:52;;;;;;;5.13;1.90;;;7.60;24.30;;;;;;2603060;54;20089;31
2024/03/16 22:10:26;;;;;;;6.70;2.53;;;7.60;23.70;;;;;;2603260;54;20053;31
2024/03/16 22:13:04;;;;;;;5.57;2.25;;;7.60;23.20;;;;;;2603240;54;20880;31
2024/03/16 22:15:36;;;;;;;7.65;2.55;;;7.60;22.50;;;;;;2603391;54;20782;31
2024/03/16 22:18:10;;;;;;;6.07;2.57;;;7.60;20.50;;;;;;2602994;54;20085;31
2024/03/16 22:20:42;;;;;;;5.70;2.65;;;7.60;18.50;;;;;;2621397;46;20911;31
2024/03/16 22:23:15;;;;;;;6.40;2.80;;;7.60;17.00;;;;;;2603174;54;20042;31
2024/03/16 22:25:52;;;;;;;7.20;2.55;;;7.50;16.70;;;;;;2603325;54;20854;31
2024/03/16 22:28:31;;;;;;;9.77;2.67;;;7.50;17.10;;;;;;2620860;46;20034;31
2024/03/16 22:31:03;;;;;;;3.47;1.70;;;7.50;16.10;;;;;;2603149;54;20964;31
2024/03/16 22:33:36;;;;;;;11.95;1.95;;;7.50;14.30;;;;;;2602888;54;20054;31
2024/03/16 22:36:09;;;;;;;6.35;2.50;;;7.50;12.00;;;;;;2621403;46;21263;31
2024/03/16 22:38:43;;;;;;;6.15;1.70;;;7.50;10.30;;;;;;2621510;46;20089;31
2024/03/16 22:41:14;;;;;;;4.85;2.50;;;7.50;8.10;;;;;;2603138;54;20848;31
2024/03/16 22:43:51;;;;;;;5.70;2.10;;;7.50;6.50;;;;;;2603239;54;20612;31
2024/03/16 22:46:22;;;;;;;6.38;2.75;;;7.40;6.00;;;;;;2603015;54;20124;31
2024/03/16 22:48:58;;;;;;;7.87;2.30;;;7.40;5.10;;;;;;2602657;54;20061;31
2024/03/16 22:51:31;;;;;;;5.80;2.10;;;7.40;5.20;;;;;;2603034;54;20496;31
2024/03/16 22:54:02;;;;;;;5.93;1.55;;;7.30;6.20;;;;;;2621343;46;20878;31
2024/03/16 22:56:36;;;;;;;4.72;2.25;;;7.30;7.10;;;;;;2602987;54;20916;31
2024/03/16 22:59:11;;;;;;;5.85;1.70;;;7.20;7.80;;;;;;2602953;54;21244;31
2024/03/16 23:01:44;;;;;;;6.50;1.80;;;7.20;9.90;;;;;;2603068;54;20861;31
2024/03/16 23:04:18;;;;;;;3.90;1.83;;;7.10;10.50;;;;;;2621202;46;20804;31
2024/03/16 23:06:51;;;;;;;5.10;1.70;;;7.20;11.70;;;;;;2602878;54;20037;31
2024/03/16 23:09:22;;;;;;;4.10;1.42;;;7.10;12.70;;;;;;2603018;54;20046;31
2024/03/16 23:11:56;;;;;;;3.65;1.50;;;7.10;13.20;;;;;;2621695;46;20825;31
2024/03/16 23:14:30;;;;;;;3.60;1.40;;;7.00;15.00;;;;;;2603068;54;20022;31
2024/03/16 23:17:08;;;;;;;4.45;1.50;;;7.00;18.20;;;;;;2701293;39;20404;31